Time;durP1;ratioP1;P1;durP2;ratioP2;P2;SDS_P1;SDS_P2;PMS_P1;PMS_P2;Temp;Humidity;BMP_temperature;BMP_pressure;BME280_temperature;BME280_humidity;BME280_pressure;Samples;Min_cycle;Max_cycle;Signal;HPM_P1;HPM_P2
2022/03/19 00:01:29;;;;;;;12.77;6.80;;;;;;;-1.41;55.40;98570.47;5114836;28;20080;-68
2022/03/19 00:03:54;;;;;;;11.38;6.53;;;;;;;-1.42;55.60;98563.56;5114864;28;20075;-68
2022/03/19 00:06:20;;;;;;;14.27;6.28;;;;;;;-1.46;55.60;98564.25;5114947;27;20465;-68
2022/03/19 00:08:46;;;;;;;14.77;7.70;;;;;;;-1.42;55.99;98569.59;5114817;28;20027;-68
2022/03/19 00:11:12;;;;;;;9.27;6.28;;;;;;;-1.43;56.49;98555.00;5114733;28;20489;-68
2022/03/19 00:13:37;;;;;;;14.93;6.68;;;;;;;-1.45;56.13;98555.72;5114694;28;20469;-68
2022/03/19 00:16:05;;;;;;;12.70;6.85;;;;;;;-1.43;56.55;98554.09;5114537;28;20016;-68
2022/03/19 00:18:30;;;;;;;12.05;6.32;;;;;;;-1.43;56.34;98554.09;5114592;28;20046;-68
2022/03/19 00:20:56;;;;;;;10.80;6.57;;;;;;;-1.47;56.10;98552.22;5114231;27;20047;-68
2022/03/19 00:23:22;;;;;;;11.68;7.22;;;;;;;-1.51;55.79;98551.19;5114497;28;20421;-68
2022/03/19 00:25:48;;;;;;;14.13;6.95;;;;;;;-1.51;55.92;98548.63;5114321;28;20028;-67
2022/03/19 00:28:18;;;;;;;13.65;6.65;;;;;;;-1.49;56.00;98543.56;5114445;28;20024;-68
2022/03/19 00:30:45;;;;;;;9.63;6.50;;;;;;;-1.57;56.50;98532.97;5114360;28;20024;-68
2022/03/19 00:33:12;;;;;;;13.13;7.05;;;;;;;-1.59;56.37;98530.38;5114311;28;20032;-68
2022/03/19 00:35:37;;;;;;;14.57;6.30;;;;;;;-1.65;56.64;98532.66;5114248;28;20462;-68
2022/03/19 00:38:04;;;;;;;11.10;5.97;;;;;;;-1.65;56.37;98537.81;5114227;28;20030;-68
2022/03/19 00:40:30;;;;;;;11.60;5.80;;;;;;;-1.75;56.67;98538.22;5114186;28;20023;-68
2022/03/19 00:42:56;;;;;;;11.93;6.78;;;;;;;-1.73;56.76;98536.56;5114211;28;20408;-68
2022/03/19 00:45:21;;;;;;;12.63;6.82;;;;;;;-1.83;57.16;98543.00;5114146;28;20094;-68
2022/03/19 00:47:47;;;;;;;12.82;7.40;;;;;;;-1.81;57.40;98536.25;5114143;28;20436;-68
2022/03/19 00:50:13;;;;;;;12.85;6.60;;;;;;;-1.95;58.19;98538.22;5113937;28;20019;-68
2022/03/19 00:52:39;;;;;;;13.60;7.55;;;;;;;-1.92;57.76;98539.22;5113660;28;20020;-68
2022/03/19 00:55:07;;;;;;;11.57;7.07;;;;;;;-1.90;57.74;98534.16;5113766;28;20015;-68
2022/03/19 00:57:43;;;;;;;9.40;6.90;;;;;;;-1.92;57.16;98534.09;5113908;28;20481;-68
2022/03/19 01:00:11;;;;;;;11.65;6.68;;;;;;;-1.98;57.42;98535.53;5113832;28;20038;-67
2022/03/19 01:02:41;;;;;;;9.63;6.35;;;;;;;-2.05;57.73;98540.38;5113705;28;20038;-68
2022/03/19 01:05:09;;;;;;;11.18;6.57;;;;;;;-2.06;57.56;98533.50;5113612;28;20019;-68
2022/03/19 01:07:46;;;;;;;11.35;6.55;;;;;;;-2.17;57.79;98527.88;5113716;28;20034;-68
2022/03/19 01:10:14;;;;;;;14.23;7.43;;;;;;;-2.12;57.56;98529.78;5113664;28;20019;-68
2022/03/19 01:12:40;;;;;;;14.48;7.00;;;;;;;-2.11;57.33;98528.97;5113734;28;20031;-68
2022/03/19 01:15:06;;;;;;;10.48;6.40;;;;;;;-2.09;57.80;98530.78;5113636;28;20382;-67
2022/03/19 01:17:32;;;;;;;10.95;6.70;;;;;;;-2.08;58.22;98521.44;5113637;28;20077;-67
2022/03/19 01:19:59;;;;;;;12.25;6.82;;;;;;;-2.00;58.15;98524.31;5113549;28;20102;-68
2022/03/19 01:22:26;;;;;;;11.98;7.15;;;;;;;-2.03;58.40;98527.63;5113287;28;20387;-68
2022/03/19 01:24:52;;;;;;;10.80;7.05;;;;;;;-2.04;58.21;98520.75;5113637;28;20369;-68
2022/03/19 01:27:18;;;;;;;10.45;6.97;;;;;;;-2.11;58.47;98518.72;5113498;28;20023;-68
2022/03/19 01:29:43;;;;;;;12.18;7.57;;;;;;;-2.14;58.36;98518.59;5113406;28;20016;-68
2022/03/19 01:32:09;;;;;;;10.50;6.50;;;;;;;-2.25;54.00;98518.09;5113317;28;20089;-68
2022/03/19 01:34:36;;;;;;;8.43;6.05;;;;;;;-2.17;53.71;98512.50;5113423;28;20427;-68
2022/03/19 01:37:02;;;;;;;10.65;5.93;;;;;;;-2.11;53.20;98513.59;5113409;28;20026;-68
2022/03/19 01:39:27;;;;;;;9.98;5.30;;;;;;;-2.10;51.72;98513.66;5113390;28;20027;-68
2022/03/19 01:41:53;;;;;;;11.45;6.32;;;;;;;-2.11;51.41;98506.75;5113359;28;20024;-68
2022/03/19 01:44:20;;;;;;;9.48;5.60;;;;;;;-2.07;51.22;98513.78;5113570;28;20481;-68
2022/03/19 01:47:10;;;;;;;10.13;6.22;;;;;;;-2.07;49.28;98511.22;5113409;28;20023;-68
2022/03/19 01:49:36;;;;;;;8.93;4.88;;;;;;;-2.03;48.78;98517.34;5113335;28;20390;-68
2022/03/19 01:52:05;;;;;;;10.13;5.03;;;;;;;-1.97;47.72;98506.47;5113159;28;20046;-68
2022/03/19 01:54:36;;;;;;;8.77;5.63;;;;;;;-1.93;47.65;98505.78;5113284;28;20027;-68
2022/03/19 01:57:03;;;;;;;11.30;6.70;;;;;;;-1.89;47.70;98509.38;5113195;28;20027;-68
2022/03/19 01:59:34;;;;;;;10.85;5.97;;;;;;;-1.86;47.48;98507.84;5113189;28;20023;-68
2022/03/19 02:02:06;;;;;;;16.30;4.60;;;;;;;-1.86;47.40;98510.41;5113182;28;20019;-68
2022/03/19 02:04:34;;;;;;;8.75;5.45;;;;;;;-1.92;47.70;98508.44;5113190;28;20027;-68
2022/03/19 02:07:01;;;;;;;8.60;6.15;;;;;;;-1.90;47.42;98503.38;5116440;28;20065;-68
2022/03/19 02:09:28;;;;;;;6.97;4.43;;;;;;;-1.93;47.71;98503.22;5117144;28;20072;-68
2022/03/19 02:11:54;;;;;;;8.75;5.78;;;;;;;-1.99;48.25;98500.41;5117007;28;20055;-68
2022/03/19 02:14:20;;;;;;;9.55;5.53;;;;;;;-1.98;47.96;98505.63;5117058;28;20027;-68
2022/03/19 02:16:46;;;;;;;10.38;5.03;;;;;;;-1.94;47.99;98504.94;5116979;28;20048;-68
2022/03/19 02:19:13;;;;;;;8.70;4.75;;;;;;;-2.00;47.88;98504.66;5116885;28;20054;-68
2022/03/19 02:21:43;;;;;;;10.77;5.18;;;;;;;-2.06;48.17;98512.09;5116667;28;20173;-68
2022/03/19 02:26:55;;;;;;;8.63;5.57;;;;;;;-2.19;48.63;98509.00;5117122;28;20026;-68
2022/03/19 02:29:21;;;;;;;8.70;4.63;;;;;;;-2.22;48.26;98507.97;5116636;28;20028;-68
2022/03/19 02:31:49;;;;;;;11.38;4.90;;;;;;;-2.24;49.00;98504.44;5116575;27;20024;-68
2022/03/19 02:34:15;;;;;;;7.13;5.03;;;;;;;-2.22;48.76;98511.44;5116632;28;20086;-68
2022/03/19 02:36:40;;;;;;;7.03;5.28;;;;;;;-2.24;48.67;98517.28;5116622;28;20020;-68
2022/03/19 02:39:18;;;;;;;7.35;5.03;;;;;;;-2.22;48.71;98506.28;5116464;28;20029;-68
2022/03/19 02:41:45;;;;;;;11.23;5.15;;;;;;;-2.25;48.82;98501.03;5116416;28;20485;-68
2022/03/19 02:44:12;;;;;;;6.40;4.90;;;;;;;-2.33;48.51;98504.91;5116497;28;20469;-68
2022/03/19 02:46:42;;;;;;;9.15;5.32;;;;;;;-2.47;48.83;98501.75;5116431;28;20522;-68
2022/03/19 02:49:07;;;;;;;;;;;;;;;-2.51;49.81;98508.41;5116783;28;20026;-68
2022/03/19 02:51:38;;;;;;;7.28;4.75;;;;;;;-2.54;49.24;98503.16;5116168;28;20285;-67
2022/03/19 02:54:05;;;;;;;8.73;4.90;;;;;;;-2.54;49.42;98504.03;5116157;28;20024;-68
2022/03/19 02:56:33;;;;;;;8.55;4.78;;;;;;;-2.58;49.71;98502.16;5116193;28;20076;-68
2022/03/19 02:59:03;;;;;;;8.25;5.13;;;;;;;-2.61;49.25;98495.97;5116267;28;20422;-67
2022/03/19 03:01:29;;;;;;;7.38;4.80;;;;;;;-2.58;49.12;98512.41;5116269;28;20026;-67
2022/03/19 03:03:55;;;;;;;8.40;5.20;;;;;;;-2.61;49.45;98514.81;5116077;28;20102;-68
2022/03/19 03:06:21;;;;;;;10.85;6.10;;;;;;;-2.64;49.41;98514.69;5115913;28;20389;-68
2022/03/19 03:08:46;;;;;;;9.68;5.55;;;;;;;-2.65;49.23;98509.47;5116021;28;20028;-68
2022/03/19 03:11:12;;;;;;;8.95;5.53;;;;;;;-2.75;49.92;98506.47;5115853;28;20110;-67
2022/03/19 03:13:37;;;;;;;8.70;6.63;;;;;;;-2.79;49.76;98510.56;5115954;28;20028;-67
2022/03/19 03:16:04;;;;;;;7.90;4.78;;;;;;;-2.84;49.69;98504.38;5115385;28;20102;-67
2022/03/19 03:18:29;;;;;;;7.50;4.70;;;;;;;-2.81;49.57;98501.94;5115777;28;20057;-67
2022/03/19 03:20:55;;;;;;;9.00;5.85;;;;;;;-2.84;49.70;98494.13;5115514;28;20063;-67
2022/03/19 03:23:20;;;;;;;8.20;5.50;;;;;;;-2.89;49.52;98502.41;5115740;28;20032;-67
2022/03/19 03:25:46;;;;;;;9.13;5.78;;;;;;;-2.92;49.64;98505.72;5115707;28;20012;-67
2022/03/19 03:28:12;;;;;;;9.63;5.13;;;;;;;-2.81;49.74;98498.50;5115523;28;20031;-68
2022/03/19 03:30:37;;;;;;;10.43;5.70;;;;;;;-2.86;49.92;98500.84;5115531;28;20030;-67
2022/03/19 03:33:03;;;;;;;10.75;5.20;;;;;;;-2.87;49.53;98505.91;5115587;28;20028;-68
2022/03/19 03:35:29;;;;;;;7.40;5.15;;;;;;;-2.95;49.56;98506.41;5115575;28;20055;-67
2022/03/19 03:37:55;;;;;;;7.65;5.07;;;;;;;-2.97;49.98;98505.47;5115568;28;20022;-67
2022/03/19 03:40:21;;;;;;;7.25;4.32;;;;;;;-2.95;49.48;98501.28;5115319;28;20023;-67
2022/03/19 03:42:47;;;;;;;11.77;4.97;;;;;;;-2.97;49.82;98507.16;5115134;28;20028;-67
2022/03/19 03:45:13;;;;;;;9.98;4.75;;;;;;;-2.92;49.40;98505.72;5115224;28;20023;-68
2022/03/19 03:47:38;;;;;;;8.50;5.03;;;;;;;-2.89;49.36;98505.81;5115202;28;20094;-67
2022/03/19 03:50:04;;;;;;;9.55;4.72;;;;;;;-2.93;49.89;98506.50;5115246;28;20042;-67
2022/03/19 03:52:30;;;;;;;7.45;4.63;;;;;;;-2.98;49.76;98500.28;5115001;28;20102;-67
2022/03/19 03:54:59;;;;;;;10.43;4.97;;;;;;;-2.97;50.07;98502.03;5114949;28;20016;-67
2022/03/19 03:57:24;;;;;;;8.93;4.50;;;;;;;-3.04;49.69;98511.13;5114933;28;20027;-67
2022/03/19 03:59:50;;;;;;;7.03;4.30;;;;;;;-3.06;50.42;98507.59;5115044;28;20377;-67
2022/03/19 04:02:16;;;;;;;6.72;4.72;;;;;;;-3.05;49.98;98507.69;5114953;28;20031;-67
2022/03/19 04:04:42;;;;;;;7.95;4.68;;;;;;;-3.01;50.19;98513.81;5114758;28;20088;-67
2022/03/19 04:07:08;;;;;;;7.95;4.88;;;;;;;-3.04;50.20;98498.31;5114719;28;20055;-67
2022/03/19 04:09:34;;;;;;;7.80;4.70;;;;;;;-2.97;50.23;98508.03;5114823;27;20508;-67
2022/03/19 04:12:03;;;;;;;7.18;4.60;;;;;;;-2.98;51.29;98508.81;5114708;28;20023;-67
2022/03/19 04:14:29;;;;;;;9.50;4.97;;;;;;;-3.06;52.05;98517.84;5114730;28;20030;-67
2022/03/19 04:16:55;;;;;;;7.53;4.70;;;;;;;-3.11;52.21;98515.06;5114589;28;20023;-67
2022/03/19 04:19:20;;;;;;;19.80;14.05;;;;;;;-3.20;51.98;98514.59;5114578;28;20086;-67
2022/03/19 04:21:46;;;;;;;13.18;8.57;;;;;;;-3.24;52.94;98510.16;5114395;28;20103;-67
2022/03/19 04:24:11;;;;;;;10.43;4.97;;;;;;;-3.35;52.95;98513.06;5114571;28;20027;-67
2022/03/19 04:26:37;;;;;;;9.65;5.80;;;;;;;-3.37;53.19;98513.81;5114521;28;20031;-67
2022/03/19 04:29:03;;;;;;;9.73;5.88;;;;;;;-3.43;52.80;98509.25;5113602;28;20030;-67
2022/03/19 04:31:28;;;;;;;9.93;5.85;;;;;;;-3.45;52.82;98515.97;5114295;28;20027;-67
2022/03/19 04:33:54;;;;;;;14.57;6.53;;;;;;;-3.45;52.55;98511.75;5114362;28;20103;-67
2022/03/19 04:36:38;;;;;;;7.38;6.10;;;;;;;-3.55;51.56;98514.66;5114186;28;20024;-67
2022/03/19 04:39:06;;;;;;;7.18;4.72;;;;;;;-3.51;51.86;98515.66;5114267;28;20058;-66
2022/03/19 04:41:33;;;;;;;7.55;5.38;;;;;;;-3.53;52.01;98518.16;5114209;28;20369;-66
2022/03/19 04:43:59;;;;;;;10.55;7.57;;;;;;;-3.55;52.58;98512.09;5114071;28;20027;-67
2022/03/19 04:46:25;;;;;;;9.65;5.20;;;;;;;-3.52;52.20;98519.03;5114132;28;20056;-67
2022/03/19 04:48:52;;;;;;;7.65;5.70;;;;;;;-3.48;52.17;98514.16;5114029;28;20016;-67
2022/03/19 04:51:20;;;;;;;8.27;4.80;;;;;;;-3.46;51.60;98516.78;5113918;28;20028;-67
2022/03/19 04:53:50;;;;;;;9.35;5.15;;;;;;;-3.50;52.76;98508.06;5113915;28;20094;-67
2022/03/19 04:56:23;;;;;;;;;;;;;;;-3.39;52.40;98520.50;5114474;28;20130;-67
2022/03/19 04:58:50;;;;;;;8.05;4.88;;;;;;;-3.47;54.13;98522.69;5113915;28;19975;-67
2022/03/19 05:01:16;;;;;;;10.05;5.63;;;;;;;-3.51;55.11;98515.66;5113828;28;20385;-67
2022/03/19 05:03:42;;;;;;;7.47;4.40;;;;;;;-3.51;55.35;98524.25;5113677;28;20067;-67
2022/03/19 05:06:08;;;;;;;8.07;4.93;;;;;;;-3.52;55.80;98521.59;5113739;28;20051;-67
2022/03/19 05:08:34;;;;;;;8.90;5.45;;;;;;;-3.18;56.04;98530.94;5113762;28;20023;-67
2022/03/19 05:11:16;;;;;;;6.32;4.38;;;;;;;-2.20;54.31;98527.75;5113630;28;20019;-67
2022/03/19 05:13:44;;;;;;;6.07;4.47;;;;;;;-1.09;50.58;98536.66;5113861;28;20114;-67
2022/03/19 05:16:13;;;;;;;10.13;4.82;;;;;;;-0.04;48.16;98519.19;5113578;28;20496;-67
2022/03/19 05:18:39;;;;;;;9.77;5.10;;;;;;;1.04;44.48;98527.06;5113630;28;20023;-67
2022/03/19 05:21:04;;;;;;;8.30;4.78;;;;;;;2.07;42.73;98530.06;5113293;28;20058;-67
2022/03/19 05:23:31;;;;;;;10.18;5.07;;;;;;;2.90;41.06;98534.00;5113715;28;20020;-67
2022/03/19 05:25:58;;;;;;;6.00;4.90;;;;;;;3.74;39.98;98532.44;5113709;28;20052;-67
2022/03/19 05:28:24;;;;;;;6.13;4.25;;;;;;;4.25;38.53;98527.38;5113597;28;20377;-67
2022/03/19 05:30:50;;;;;;;7.78;4.15;;;;;;;4.66;38.30;98533.31;5113447;28;20053;-66
2022/03/19 05:33:16;;;;;;;8.95;5.07;;;;;;;5.30;35.63;98531.75;5113474;28;20043;-68
2022/03/19 05:35:44;;;;;;;6.85;4.93;;;;;;;6.18;34.56;98531.19;5113485;28;20473;-67
2022/03/19 05:38:10;;;;;;;7.40;5.38;;;;;;;6.92;32.44;98541.47;5113543;28;20035;-68
2022/03/19 05:40:36;;;;;;;5.50;4.30;;;;;;;7.19;31.56;98533.88;5116413;28;20378;-67
2022/03/19 05:43:02;;;;;;;8.40;4.65;;;;;;;7.54;32.07;98532.38;5117617;28;20020;-67
2022/03/19 05:45:28;;;;;;;4.95;4.35;;;;;;;8.06;31.40;98528.28;5117584;28;20047;-66
2022/03/19 05:47:53;;;;;;;6.25;4.65;;;;;;;8.17;29.85;98536.16;5117534;28;20024;-67
2022/03/19 05:50:19;;;;;;;6.75;4.40;;;;;;;7.05;29.40;98525.97;5117582;28;20019;-67
2022/03/19 05:52:45;;;;;;;8.65;4.68;;;;;;;6.83;29.78;98537.06;5117536;28;20024;-68
2022/03/19 05:55:12;;;;;;;5.70;4.32;;;;;;;6.30;30.36;98538.28;5117269;28;20473;-67
2022/03/19 05:57:38;;;;;;;7.78;4.60;;;;;;;5.78;31.25;98536.75;5117359;28;20146;-68
2022/03/19 06:00:05;;;;;;;6.68;4.60;;;;;;;5.65;31.51;98533.97;5117275;28;20031;-68
2022/03/19 06:02:31;;;;;;;6.40;4.35;;;;;;;6.23;31.47;98531.25;5117271;28;20016;-68
2022/03/19 06:04:56;;;;;;;6.07;4.55;;;;;;;6.66;29.96;98536.91;5117184;28;20019;-67
2022/03/19 06:07:22;;;;;;;7.93;4.80;;;;;;;6.26;30.04;98526.94;5117076;28;20031;-67
2022/03/19 06:09:47;;;;;;;6.10;4.03;;;;;;;5.65;30.63;98528.78;5117219;28;20020;-67
2022/03/19 06:12:13;;;;;;;7.30;4.45;;;;;;;5.46;32.16;98529.38;5116942;28;20088;-67
2022/03/19 06:14:38;;;;;;;6.75;4.30;;;;;;;5.63;30.70;98521.84;5117196;28;20023;-67
2022/03/19 06:17:04;;;;;;;6.72;3.90;;;;;;;6.02;31.39;98530.13;5116939;28;20411;-67
2022/03/19 06:19:30;;;;;;;6.82;4.45;;;;;;;6.60;30.42;98536.84;5116956;28;20103;-67
2022/03/19 06:21:55;;;;;;;5.47;4.22;;;;;;;7.38;29.17;98539.22;5116579;28;20035;-67
2022/03/19 06:24:23;;;;;;;7.60;4.78;;;;;;;7.20;29.09;98533.03;5117070;28;20058;-67
2022/03/19 06:26:51;;;;;;;7.00;4.43;;;;;;;6.08;29.75;98535.41;5117068;27;20047;-67
2022/03/19 06:29:17;;;;;;;6.38;4.38;;;;;;;6.18;30.22;98533.81;5116749;28;20377;-67
2022/03/19 06:31:43;;;;;;;7.63;4.65;;;;;;;6.08;30.35;98540.59;5116719;28;20036;-68
2022/03/19 06:34:09;;;;;;;6.97;4.72;;;;;;;6.19;30.01;98532.94;5116637;28;20027;-66
2022/03/19 06:39:18;;;;;;;6.70;4.18;;;;;;;5.34;31.10;98545.63;5116711;28;20389;-67
2022/03/19 06:41:44;;;;;;;5.35;4.00;;;;;;;5.00;31.82;98539.06;5116546;28;20023;-66
2022/03/19 06:44:10;;;;;;;8.90;4.55;;;;;;;5.20;32.03;98538.50;5116539;28;20031;-67
2022/03/19 06:46:36;;;;;;;5.70;4.07;;;;;;;5.46;31.72;98544.94;5116345;28;20024;-66
2022/03/19 06:49:02;;;;;;;5.40;4.22;;;;;;;4.98;31.81;98545.97;5116333;28;20047;-67
2022/03/19 06:51:28;;;;;;;7.32;4.47;;;;;;;4.56;32.71;98547.84;5115427;28;20055;-67
2022/03/19 06:53:53;;;;;;;6.47;4.43;;;;;;;4.34;33.38;98537.06;5116284;28;20051;-67
2022/03/19 06:56:19;;;;;;;6.10;4.00;;;;;;;4.71;32.02;98541.16;5116340;28;20020;-67
2022/03/19 06:58:45;;;;;;;7.18;4.55;;;;;;;4.20;32.64;98546.28;5116172;28;20024;-67
2022/03/19 07:01:15;;;;;;;8.13;3.85;;;;;;;3.63;34.30;98550.31;5116088;28;20068;-67
2022/03/19 07:03:43;;;;;;;7.65;4.32;;;;;;;3.72;34.83;98556.53;5116198;28;20027;-67
2022/03/19 07:06:09;;;;;;;6.15;4.35;;;;;;;3.82;34.27;98545.53;5116097;28;20059;-68
2022/03/19 07:08:35;;;;;;;8.80;4.22;;;;;;;4.09;33.60;98541.75;5115890;28;20059;-66
2022/03/19 07:11:01;;;;;;;5.97;3.58;;;;;;;3.93;34.56;98550.94;5115935;28;20051;-67
2022/03/19 07:13:27;;;;;;;5.70;3.88;;;;;;;3.21;34.08;98554.53;5115894;28;20024;-67
2022/03/19 07:15:53;;;;;;;9.38;4.80;;;;;;;3.03;34.81;98545.50;5116007;28;20024;-68
2022/03/19 07:18:19;;;;;;;5.20;4.20;;;;;;;2.96;35.12;98553.94;5115860;28;20012;-67
2022/03/19 07:20:46;;;;;;;7.00;4.00;;;;;;;2.99;34.69;98555.72;5115091;28;20040;-68
2022/03/19 07:23:11;;;;;;;4.57;3.85;;;;;;;2.90;36.28;98553.78;5115782;28;20035;-66
2022/03/19 07:25:39;;;;;;;8.00;4.60;;;;;;;3.15;35.53;98551.81;5115650;28;20030;-66
2022/03/19 07:28:07;;;;;;;6.88;4.18;;;;;;;3.10;35.19;98549.09;5115788;28;20095;-66
2022/03/19 07:30:33;;;;;;;5.80;4.28;;;;;;;2.38;35.67;98554.19;5115455;27;20044;-67
2022/03/19 07:32:59;;;;;;;6.32;4.40;;;;;;;2.08;36.83;98549.94;5115513;28;20496;-67
2022/03/19 07:35:26;;;;;;;7.15;4.35;;;;;;;2.00;36.58;98552.28;5115683;28;20015;-67
2022/03/19 07:37:53;;;;;;;8.05;4.05;;;;;;;1.72;37.58;98554.06;5115449;28;20026;-68
2022/03/19 07:43:08;;;;;;;5.55;3.70;;;;;;;1.93;37.22;98530.59;5115645;28;20454;-67
2022/03/19 07:45:38;;;;;;;5.57;3.92;;;;;;;1.86;36.51;98547.59;5115163;28;20035;-67
2022/03/19 07:48:04;;;;;;;;;;;;;;;1.83;37.61;98551.78;5115742;28;20073;-67
2022/03/19 07:50:30;;;;;;;6.85;3.63;;;;;;;1.99;36.38;98535.06;5115729;28;19943;-66
2022/03/19 07:52:57;;;;;;;5.80;3.92;;;;;;;2.19;37.06;98540.75;5115363;28;20092;-68
2022/03/19 07:55:24;;;;;;;6.15;3.80;;;;;;;2.59;37.95;98543.53;5115019;28;20043;-66
2022/03/19 07:57:50;;;;;;;6.78;3.38;;;;;;;2.72;35.33;98546.44;5114803;28;20020;-66
2022/03/19 08:00:17;;;;;;;5.93;3.80;;;;;;;2.69;36.51;98561.88;5115034;28;20102;-67
2022/03/19 08:02:43;;;;;;;5.93;4.13;;;;;;;2.71;35.52;98549.88;5114222;28;20023;-67
2022/03/19 08:05:10;;;;;;;6.25;3.85;;;;;;;3.00;35.45;98560.06;5114720;28;20024;-67
2022/03/19 08:07:37;;;;;;;4.97;3.40;;;;;;;2.62;34.51;98553.09;5114853;28;20015;-65
2022/03/19 08:10:13;;;;;;;6.75;4.60;;;;;;;2.64;36.65;98543.66;5114680;28;20019;-66
2022/03/19 08:12:41;;;;;;;5.93;4.38;;;;;;;2.82;35.98;98542.38;5114853;28;20027;-68
2022/03/19 08:15:08;;;;;;;8.38;3.75;;;;;;;2.87;34.99;98538.19;5114880;28;20027;-65
2022/03/19 08:17:38;;;;;;;4.85;3.17;;;;;;;2.87;34.12;98548.53;5114668;28;20026;-68
2022/03/19 08:20:08;;;;;;;4.80;3.35;;;;;;;2.60;34.69;98547.88;5114535;28;20373;-68
2022/03/19 08:22:34;;;;;;;5.25;3.75;;;;;;;2.67;33.82;98548.91;5114427;28;20043;-66
2022/03/19 08:25:02;;;;;;;5.60;3.22;;;;;;;3.18;34.87;98556.16;5114568;28;20024;-68
2022/03/19 08:27:28;;;;;;;4.22;3.20;;;;;;;2.82;33.68;98556.19;5114624;27;20019;-67
2022/03/19 08:29:54;;;;;;;5.40;3.65;;;;;;;2.78;34.36;98549.19;5114486;28;20133;-66
2022/03/19 08:32:23;;;;;;;4.95;3.67;;;;;;;2.88;34.26;98542.53;5114210;28;20115;-67
2022/03/19 08:34:49;;;;;;;4.78;3.35;;;;;;;2.70;34.62;98525.72;5114200;28;20027;-66
2022/03/19 08:37:15;;;;;;;6.03;3.53;;;;;;;2.52;34.45;98546.78;5114312;28;20024;-67
2022/03/19 08:42:24;;;;;;;4.88;2.97;;;;;;;2.16;35.86;98532.91;5114261;28;20030;-68
2022/03/19 08:44:51;;;;;;;4.18;3.25;;;;;;;2.53;34.68;98533.91;5114087;28;20377;-65
2022/03/19 08:47:17;;;;;;;4.20;2.80;;;;;;;2.66;34.42;98542.00;5114167;28;20023;-66
2022/03/19 08:49:43;;;;;;;3.85;2.65;;;;;;;2.48;33.49;98544.97;5114095;28;20015;-68
2022/03/19 09:39:14;;;;;;;6.47;2.97;;;;;;;2.37;34.84;98548.13;5106953;28;20074;-69
2022/03/19 09:41:44;;;;;;;4.03;2.53;;;;;;;2.59;35.76;98548.69;5113402;28;20035;-68
2022/03/19 09:44:12;;;;;;;4.32;2.80;;;;;;;3.10;34.67;98553.41;5113571;28;20016;-65
2022/03/19 09:46:38;;;;;;;4.20;2.88;;;;;;;3.24;32.80;98553.72;5113638;28;20035;-66
2022/03/19 09:49:04;;;;;;;4.45;3.58;;;;;;;3.14;33.58;98556.13;5113512;28;20072;-67
2022/03/19 09:51:31;;;;;;;4.80;3.15;;;;;;;3.18;33.64;98553.56;5113446;28;20019;-68
2022/03/19 09:53:57;;;;;;;4.05;2.92;;;;;;;3.12;32.69;98546.53;5113328;28;20020;-68
2022/03/19 09:56:23;;;;;;;3.95;2.67;;;;;;;2.74;32.73;98543.06;5113419;28;20065;-67
2022/03/19 09:58:48;;;;;;;5.00;3.08;;;;;;;2.74;33.93;98544.78;5113509;28;20015;-68
2022/03/19 10:01:18;;;;;;;4.53;3.15;;;;;;;2.77;34.67;98553.47;5113461;28;20023;-66
2022/03/19 10:03:45;;;;;;;3.57;3.00;;;;;;;2.59;34.39;98543.53;5113194;28;20431;-66
2022/03/19 10:09:01;;;;;;;4.43;2.97;;;;;;;2.12;35.48;98539.72;5113614;28;20142;-65
2022/03/19 10:11:34;;;;;;;4.88;3.42;;;;;;;1.94;35.82;98547.81;5113251;28;20028;-66
2022/03/19 10:14:06;;;;;;;6.63;3.55;;;;;;;1.74;36.23;98544.66;5113233;28;20102;-69
2022/03/19 10:16:35;;;;;;;5.60;3.70;;;;;;;1.64;36.36;98539.22;5113295;28;20024;-65
2022/03/19 10:19:09;;;;;;;4.10;3.17;;;;;;;1.81;36.48;98543.13;5113254;28;20065;-69
2022/03/19 10:21:41;;;;;;;4.60;3.22;;;;;;;1.88;35.69;98552.81;5113251;28;20706;-66
2022/03/19 10:24:08;;;;;;;6.13;3.00;;;;;;;1.93;35.64;98540.91;5113268;28;20375;-66
2022/03/19 10:26:37;;;;;;;4.78;2.95;;;;;;;1.93;34.91;98534.88;5112904;28;20381;-66
2022/03/19 10:29:09;;;;;;;4.47;3.17;;;;;;;1.88;36.35;98543.38;5116950;28;20461;-66
2022/03/19 10:31:38;;;;;;;6.90;3.53;;;;;;;1.94;36.77;98541.78;5116778;28;20031;-69
2022/03/19 10:34:06;;;;;;;6.15;3.50;;;;;;;1.95;36.29;98535.78;5116774;28;20039;-69
2022/03/19 10:36:40;;;;;;;5.32;3.70;;;;;;;1.99;35.99;98525.56;5115491;28;20423;-70
2022/03/19 10:39:29;;;;;;;17.92;7.40;;;;;;;2.00;35.71;98532.50;5116472;28;20562;-67
2022/03/19 10:41:56;;;;;;;18.27;8.02;;;;;;;1.99;35.65;98529.88;5116656;28;20088;-69
2022/03/19 10:44:27;;;;;;;6.40;3.45;;;;;;;2.06;35.67;98518.88;5116552;28;20027;-68
2022/03/19 10:46:55;;;;;;;8.75;4.38;;;;;;;2.06;37.59;98516.31;5116470;28;20032;-68
2022/03/19 10:49:24;;;;;;;7.20;3.78;;;;;;;2.37;37.48;98514.56;5116766;28;20027;-68
2022/03/19 10:51:52;;;;;;;6.60;3.47;;;;;;;2.38;35.82;98515.44;5116401;28;20032;-68
2022/03/19 10:54:18;;;;;;;7.00;4.05;;;;;;;2.02;36.54;98510.16;5116376;28;20019;-67
2022/03/19 10:56:45;;;;;;;5.43;3.83;;;;;;;1.97;36.06;98516.03;5116386;27;20350;-69
2022/03/19 10:59:11;;;;;;;5.18;3.55;;;;;;;1.89;36.27;98510.66;5116249;28;20023;-69
2022/03/19 11:01:37;;;;;;;5.20;3.35;;;;;;;1.93;36.04;98504.78;5116288;28;20030;-68
2022/03/19 11:04:06;;;;;;;6.25;3.90;;;;;;;2.19;36.60;98508.88;5116135;28;20019;-68
2022/03/19 11:06:44;;;;;;;4.85;3.85;;;;;;;2.30;35.56;98493.69;5116087;28;20512;-68
2022/03/19 11:09:13;;;;;;;6.50;3.92;;;;;;;2.43;37.30;98493.16;5116248;28;20031;-68
2022/03/19 11:11:58;;;;;;;6.22;3.60;;;;;;;2.62;36.30;98488.47;5116119;28;20027;-68
2022/03/19 11:14:27;;;;;;;5.90;3.42;;;;;;;2.54;36.83;98488.28;5114828;28;20032;-68
2022/03/19 11:19:53;;;;;;;4.90;3.35;;;;;;;2.31;34.39;98485.09;5115974;28;20069;-67
2022/03/19 11:22:21;;;;;;;3.90;3.15;;;;;;;2.30;34.73;98479.06;5115995;28;20020;-69
2022/03/19 11:25:09;;;;;;;4.82;3.75;;;;;;;2.40;34.93;98481.06;5115849;28;20051;-68
2022/03/19 11:27:42;;;;;;;4.47;3.15;;;;;;;2.36;35.16;98468.00;5115763;28;20020;-68
2022/03/19 11:30:28;;;;;;;10.23;4.10;;;;;;;2.30;35.25;98473.91;5115676;28;20028;-67
2022/03/19 11:33:08;;;;;;;5.40;3.80;;;;;;;2.26;35.99;98469.50;5115930;27;20035;-68
2022/03/19 11:35:36;;;;;;;;;;;;;;;2.24;35.80;98471.16;5116152;28;20028;-66
2022/03/19 11:38:18;;;;;;;5.70;3.70;;;;;;;2.08;35.80;98464.72;5113683;28;20303;-68
2022/03/19 11:40:50;;;;;;;6.57;4.03;;;;;;;1.92;36.62;98472.03;5115415;28;20020;-68
2022/03/19 11:43:37;;;;;;;5.68;3.53;;;;;;;1.63;36.51;98464.34;5115465;28;20031;-66
2022/03/19 11:46:09;;;;;;;4.15;3.15;;;;;;;1.58;36.49;98477.13;5115178;28;20098;-67
2022/03/19 11:48:35;;;;;;;7.60;3.53;;;;;;;1.55;38.07;98464.13;5115438;28;20074;-68
2022/03/19 11:51:19;;;;;;;6.85;3.65;;;;;;;1.53;37.83;98464.91;5115194;28;20477;-66
2022/03/19 11:53:54;;;;;;;6.63;3.83;;;;;;;1.84;39.27;98470.94;5115307;28;20034;-67
2022/03/19 11:56:21;;;;;;;7.63;3.42;;;;;;;1.98;37.92;98460.97;5115228;28;20015;-68
2022/03/19 11:58:48;;;;;;;7.30;3.75;;;;;;;2.17;38.32;98464.97;5115042;27;20019;-68
2022/03/19 12:01:13;;;;;;;8.20;4.10;;;;;;;2.13;38.23;98463.09;5113848;28;20069;-69
2022/03/19 12:04:10;;;;;;;8.93;4.30;;;;;;;1.96;38.31;98458.34;5115007;28;20401;-68
2022/03/19 12:06:38;;;;;;;7.20;4.80;;;;;;;2.01;39.06;98458.50;5114876;28;20023;-68
2022/03/19 12:09:05;;;;;;;9.75;5.38;;;;;;;2.08;39.89;98462.13;5114798;28;20466;-67
2022/03/19 12:11:33;;;;;;;6.25;4.15;;;;;;;2.16;37.66;98457.19;5114860;28;20106;-69
2022/03/19 12:13:59;;;;;;;6.28;4.05;;;;;;;2.11;37.36;98462.22;5114666;28;20068;-68
2022/03/19 12:16:45;;;;;;;5.53;3.88;;;;;;;2.03;37.05;98454.25;5114700;28;20488;-69
2022/03/19 12:19:11;;;;;;;6.10;3.90;;;;;;;1.77;37.40;98454.41;5114677;28;20028;-69
2022/03/19 12:21:43;;;;;;;5.25;3.85;;;;;;;1.70;36.69;98445.63;5114712;28;20057;-68
2022/03/19 12:24:42;;;;;;;6.57;3.95;;;;;;;1.82;37.87;98445.09;5114605;28;20042;-69
2022/03/19 12:27:08;;;;;;;5.53;3.70;;;;;;;1.82;37.78;98436.47;5102374;28;20051;-68
2022/03/19 12:29:35;;;;;;;5.32;3.78;;;;;;;1.92;38.33;98445.34;5114436;28;20019;-68
2022/03/19 12:32:04;;;;;;;6.85;4.10;;;;;;;1.67;37.16;98448.13;5114310;28;20038;-67
2022/03/19 12:34:30;;;;;;;7.50;3.65;;;;;;;1.39;37.73;98437.00;5114376;28;20496;-69
2022/03/19 12:37:01;;;;;;;5.47;3.47;;;;;;;1.28;38.28;98438.38;5114374;28;20106;-66
2022/03/19 12:39:28;;;;;;;6.60;4.38;;;;;;;1.25;38.24;98439.19;5114235;28;20043;-66
2022/03/19 12:41:54;;;;;;;5.10;3.80;;;;;;;0.97;38.70;98421.16;5114285;28;20016;-67
2022/03/19 12:44:26;;;;;;;6.85;3.63;;;;;;;1.01;39.62;98429.88;5114063;28;20038;-67